createdAt,value
2022-09-07T00:02:05.096Z,19.97
2022-09-07T00:06:16.720Z,19.82
2022-09-07T00:10:28.942Z,19.76
2022-09-07T00:14:40.547Z,19.75
2022-09-07T00:18:55.444Z,19.69
2022-09-07T00:23:07.081Z,19.70
2022-09-07T00:27:18.725Z,19.77
2022-09-07T00:31:31.495Z,19.71
2022-09-07T00:35:43.151Z,19.61
2022-09-07T00:39:54.784Z,19.40
2022-09-07T00:44:42.863Z,19.42
2022-09-07T00:49:00.916Z,19.40
2022-09-07T00:53:24.052Z,19.29
2022-09-07T00:57:37.649Z,19.26
2022-09-07T01:01:49.438Z,19.18
2022-09-07T01:06:10.599Z,19.13
2022-09-07T01:10:25.909Z,19.18
2022-09-07T01:14:48.369Z,19.20
2022-09-07T01:19:16.926Z,19.19
2022-09-07T01:23:55.538Z,19.19
2022-09-07T01:28:22.703Z,19.25
2022-09-07T01:32:59.242Z,19.29
2022-09-07T01:37:29.524Z,19.30
2022-09-07T01:42:08.577Z,19.23
2022-09-07T01:46:47.785Z,19.18
2022-09-07T01:51:03.379Z,19.17
2022-09-07T01:55:55.699Z,19.13
2022-09-07T02:00:15.451Z,19.11
2022-09-07T02:04:41.802Z,19.06
2022-09-07T02:08:58.987Z,19.06
2022-09-07T02:13:23.551Z,19.08
2022-09-07T02:17:42.445Z,19.00
2022-09-07T02:22:05.507Z,18.93
2022-09-07T02:26:22.190Z,18.88
2022-09-07T02:30:34.008Z,18.90
2022-09-07T02:34:46.210Z,18.94
2022-09-07T02:38:57.765Z,19.01
2022-09-07T02:43:11.537Z,19.06
2022-09-07T02:48:05.146Z,19.07
2022-09-07T02:52:37.044Z,19.03
2022-09-07T02:57:10.568Z,19.04
2022-09-07T03:01:55.584Z,19.04
2022-09-07T03:06:14.084Z,18.99
2022-09-07T03:10:26.707Z,19.01
2022-09-07T03:14:40.707Z,19.00
2022-09-07T03:18:52.264Z,18.95
2022-09-07T03:23:03.870Z,18.97
2022-09-07T03:27:15.431Z,19.02
2022-09-07T03:31:27.090Z,19.04
2022-09-07T03:35:38.645Z,19.01
2022-09-07T03:39:50.200Z,19.04
2022-09-07T03:44:05.729Z,19.08
2022-09-07T03:48:17.296Z,19.07
2022-09-07T03:52:28.894Z,19.18
2022-09-07T03:56:40.491Z,19.23
2022-09-07T04:00:52.103Z,19.27
2022-09-07T04:05:03.807Z,19.33
2022-09-07T04:09:15.422Z,19.38
2022-09-07T04:13:28.415Z,19.43
2022-09-07T04:17:40.031Z,19.47
2022-09-07T04:21:51.695Z,19.49
2022-09-07T04:26:03.311Z,19.51
2022-09-07T04:30:14.986Z,19.52
2022-09-07T04:34:26.693Z,19.51
2022-09-07T04:38:40.042Z,19.52
2022-09-07T04:42:51.641Z,19.56
2022-09-07T04:47:03.244Z,19.57
2022-09-07T04:51:15.228Z,19.60
2022-09-07T04:55:26.854Z,19.60
2022-09-07T04:59:38.490Z,19.62
2022-09-07T05:03:50.717Z,19.61
2022-09-07T05:08:02.432Z,19.65
2022-09-07T05:12:14.015Z,19.62
2022-09-07T05:16:26.399Z,19.56
2022-09-07T05:20:38.009Z,19.53
2022-09-07T05:24:49.553Z,19.46
2022-09-07T05:38:07.623Z,19.47
2022-09-07T05:42:19.397Z,19.48
2022-09-07T05:46:31.209Z,19.53
2022-09-07T05:50:52.736Z,19.61
2022-09-07T05:55:28.224Z,19.58
2022-09-07T05:59:36.203Z,19.67
2022-09-07T06:03:47.874Z,19.73
2022-09-07T06:07:59.478Z,19.83
2022-09-07T06:12:11.091Z,19.90
2022-09-07T06:16:22.890Z,20.03
2022-09-07T06:20:34.512Z,20.24
2022-09-07T06:24:46.113Z,20.57
2022-09-07T06:28:58.169Z,21.04
2022-09-07T06:33:09.828Z,21.40
2022-09-07T06:37:21.376Z,21.33
2022-09-07T06:50:38.310Z,21.56
2022-09-07T06:59:08.761Z,21.83
2022-09-07T07:03:20.841Z,21.66
2022-09-07T07:07:32.516Z,21.57
2022-09-07T07:11:44.693Z,21.59
2022-09-07T07:16:22.589Z,22.17
2022-09-07T07:20:39.243Z,22.32
2022-09-07T07:24:50.843Z,22.15
2022-09-07T07:29:03.541Z,21.94
2022-09-07T07:33:24.055Z,21.79
2022-09-07T07:37:37.215Z,21.71
2022-09-07T07:41:57.684Z,21.63
2022-09-07T07:46:16.642Z,21.51
2022-09-07T07:50:32.259Z,21.43
2022-09-07T07:54:45.231Z,21.46
2022-09-07T07:58:56.781Z,21.60
2022-09-07T08:03:08.320Z,21.61
2022-09-07T08:07:19.866Z,21.75
2022-09-07T08:11:31.631Z,22.42
2022-09-07T08:15:48.458Z,22.62
2022-09-07T08:20:00.391Z,23.82
2022-09-07T08:24:11.939Z,24.80
2022-09-07T08:28:23.983Z,24.87
2022-09-07T08:32:35.738Z,24.55
2022-09-07T08:36:47.445Z,24.26
2022-09-07T08:40:59.936Z,24.13
2022-09-07T08:45:21.816Z,25.10
2022-09-07T08:50:04.263Z,25.82
2022-09-07T08:54:16.901Z,26.61
2022-09-07T08:58:50.172Z,27.61
2022-09-07T09:08:19.021Z,28.43
2022-09-07T09:12:52.175Z,29.61
2022-09-07T09:17:10.594Z,30.27
2022-09-07T09:21:22.440Z,30.85
2022-09-07T09:25:37.153Z,31.11
2022-09-07T09:29:48.695Z,31.23
2022-09-07T09:34:15.705Z,31.77
2022-09-07T09:38:29.401Z,32.06
2022-09-07T09:42:41.068Z,32.56
2022-09-07T09:56:04.542Z,33.24
2022-09-07T10:00:27.866Z,33.40
2022-09-07T10:04:40.981Z,33.76
2022-09-07T10:08:58.242Z,33.74
2022-09-07T10:13:20.457Z,34.07
2022-09-07T10:17:43.275Z,33.93
2022-09-07T10:21:57.952Z,33.68
2022-09-07T10:26:36.592Z,33.98
2022-09-07T10:31:16.619Z,33.98
2022-09-07T10:35:31.546Z,34.20
2022-09-07T10:40:08.899Z,34.24
2022-09-07T10:44:52.785Z,34.60
2022-09-07T10:49:27.709Z,34.42
2022-09-07T10:59:05.831Z,34.92
2022-09-07T11:03:30.947Z,34.58
2022-09-07T11:07:47.819Z,33.53
2022-09-07T11:12:15.071Z,32.60
2022-09-07T11:21:12.513Z,33.24
2022-09-07T11:25:33.944Z,33.26
2022-09-07T11:29:55.126Z,33.18
2022-09-07T11:34:26.122Z,32.62
2022-09-07T11:38:45.241Z,32.07
2022-09-07T11:43:05.243Z,32.63
2022-09-07T11:47:31.051Z,32.67
2022-09-07T11:51:54.401Z,32.60
2022-09-07T11:56:13.973Z,32.37
2022-09-07T12:00:48.824Z,32.31
2022-09-07T12:05:25.148Z,32.44
2022-09-07T12:09:45.706Z,32.07
2022-09-07T12:14:19.282Z,32.18
2022-09-07T12:19:01.756Z,32.71
2022-09-07T12:23:16.256Z,32.84
2022-09-07T12:27:37.625Z,32.97
2022-09-07T12:32:08.278Z,32.61
2022-09-07T12:36:26.440Z,31.97
2022-09-07T12:40:37.964Z,31.52
2022-09-07T12:45:27.597Z,31.47
2022-09-07T12:49:59.933Z,31.72
2022-09-07T12:54:20.382Z,31.61
2022-09-07T12:58:44.437Z,31.39
2022-09-07T13:03:52.633Z,31.09
2022-09-07T13:08:09.340Z,30.62
2022-09-07T13:17:46.497Z,30.49
2022-09-07T13:21:58.090Z,30.34
2022-09-07T13:26:13.020Z,30.24
2022-09-07T13:31:03.500Z,30.35
2022-09-07T13:35:25.363Z,30.44
2022-09-07T13:39:44.914Z,30.13
2022-09-07T13:44:02.087Z,30.01
2022-09-07T13:48:31.920Z,30.14
2022-09-07T13:52:47.843Z,30.20
2022-09-07T13:57:20.709Z,30.20
2022-09-07T14:01:33.004Z,30.13
2022-09-07T14:05:44.640Z,29.96
2022-09-07T14:10:11.552Z,29.63
2022-09-07T14:14:24.459Z,29.34
2022-09-07T14:18:36.481Z,29.34
2022-09-07T14:28:57.370Z,29.26
2022-09-07T14:33:20.264Z,29.33
2022-09-07T14:37:31.902Z,29.32
2022-09-07T14:41:45.188Z,29.17
2022-09-07T14:46:26.858Z,29.20
2022-09-07T14:50:41.186Z,29.06
2022-09-07T14:54:54.721Z,28.89
2022-09-07T14:59:44.139Z,28.90
2022-09-07T15:03:56.848Z,28.84
2022-09-07T15:08:20.247Z,28.82
2022-09-07T15:12:38.701Z,28.72
2022-09-07T15:21:36.613Z,28.66
2022-09-07T15:25:53.649Z,28.78
2022-09-07T15:30:05.999Z,28.79
2022-09-07T15:34:20.273Z,28.85
2022-09-07T15:43:16.509Z,28.68
2022-09-07T15:47:51.147Z,28.62
2022-09-07T15:52:05.544Z,28.56
2022-09-07T15:56:20.161Z,28.48
2022-09-07T16:00:32.621Z,28.39
2022-09-07T16:04:44.471Z,28.26
2022-09-07T16:08:56.328Z,28.17
2022-09-07T16:13:16.305Z,28.16
2022-09-07T16:17:35.765Z,28.17
2022-09-07T16:21:48.456Z,28.02
2022-09-07T16:26:02.217Z,27.75
2022-09-07T16:30:13.863Z,27.80
2022-09-07T16:34:25.551Z,27.66
2022-09-07T16:38:45.486Z,27.46
2022-09-07T16:42:57.473Z,27.31
2022-09-07T16:47:09.739Z,27.20
2022-09-07T16:51:22.992Z,27.12
2022-09-07T16:55:34.638Z,27.11
2022-09-07T16:59:48.163Z,27.07
2022-09-07T17:04:00.710Z,26.99
2022-09-07T17:08:14.653Z,26.86
2022-09-07T17:12:26.421Z,26.77
2022-09-07T17:16:40.033Z,26.51
2022-09-07T17:20:58.578Z,26.52
2022-09-07T17:25:10.385Z,26.46
2022-09-07T17:29:22.086Z,26.26
2022-09-07T17:33:34.721Z,26.26
2022-09-07T17:37:46.350Z,26.04
2022-09-07T17:41:58.245Z,25.88
2022-09-07T17:46:14.397Z,25.88
2022-09-07T17:50:26.704Z,25.88
2022-09-07T17:54:39.338Z,25.77
2022-09-07T17:58:51.239Z,25.60
2022-09-07T18:03:03.748Z,25.64
2022-09-07T18:07:15.690Z,25.39
2022-09-07T18:16:00.095Z,25.00
2022-09-07T18:20:12.014Z,24.79
2022-09-07T18:24:24.346Z,24.68
2022-09-07T18:33:08.705Z,24.42
2022-09-07T18:37:20.492Z,24.31
2022-09-07T18:41:34.529Z,24.26
2022-09-07T18:45:46.096Z,24.13
2022-09-07T18:49:57.782Z,23.99
2022-09-07T18:54:09.449Z,23.88
2022-09-07T18:58:21.002Z,23.63
2022-09-07T19:02:33.519Z,23.56
2022-09-07T19:06:45.300Z,23.40
2022-09-07T19:11:02.923Z,23.33
2022-09-07T19:15:14.970Z,23.22
2022-09-07T19:19:26.702Z,23.02
2022-09-07T19:23:38.444Z,22.88
2022-09-07T19:27:50.034Z,22.84
2022-09-07T19:32:04.589Z,22.78
2022-09-07T19:36:16.255Z,22.64
2022-09-07T19:40:27.845Z,22.58
2022-09-07T19:44:39.440Z,22.54
2022-09-07T19:48:51.394Z,22.40
2022-09-07T19:53:02.949Z,22.33
2022-09-07T19:57:14.601Z,22.27
2022-09-07T20:01:26.373Z,22.28
2022-09-07T20:05:41.477Z,22.30
2022-09-07T20:09:53.143Z,22.30
2022-09-07T20:14:04.763Z,22.23
2022-09-07T20:18:16.369Z,22.25
2022-09-07T20:22:28.580Z,22.19
2022-09-07T20:26:40.147Z,22.09
2022-09-07T20:30:51.969Z,21.98
2022-09-07T20:35:03.591Z,21.88
2022-09-07T20:39:16.425Z,21.78
2022-09-07T20:43:27.973Z,21.74
2022-09-07T20:47:39.759Z,21.65
2022-09-07T20:51:51.348Z,21.59
2022-09-07T20:56:13.274Z,21.50
2022-09-07T21:00:25.781Z,21.44
2022-09-07T21:04:37.289Z,21.38
2022-09-07T21:08:49.595Z,21.33
2022-09-07T21:13:01.134Z,21.34
2022-09-07T21:17:12.681Z,21.40
2022-09-07T21:21:26.485Z,21.46
2022-09-07T21:25:44.213Z,21.42
2022-09-07T21:29:55.761Z,21.34
2022-09-07T21:34:07.357Z,21.27
2022-09-07T21:38:21.450Z,21.31
2022-09-07T21:42:33.050Z,21.35
2022-09-07T21:46:45.121Z,21.39
2022-09-07T21:50:57.208Z,21.44
2022-09-07T21:55:08.860Z,21.45
2022-09-07T21:59:20.434Z,21.38
2022-09-07T22:03:32.096Z,21.25
2022-09-07T22:07:43.747Z,21.25
2022-09-07T22:11:55.381Z,21.30
2022-09-07T22:16:07.981Z,21.31
2022-09-07T22:20:19.804Z,21.21
2022-09-07T22:24:31.601Z,21.23
2022-09-07T22:28:43.360Z,21.23
2022-09-07T22:32:55.108Z,21.27
2022-09-07T22:37:06.807Z,21.29
2022-09-07T22:41:20.947Z,21.26
2022-09-07T22:45:32.514Z,21.31
2022-09-07T22:49:44.114Z,21.29
2022-09-07T22:53:56.234Z,21.27
2022-09-07T22:58:07.773Z,21.25
2022-09-07T23:02:19.375Z,21.22
2022-09-07T23:06:34.494Z,21.25
2022-09-07T23:10:46.129Z,21.19
2022-09-07T23:14:57.696Z,21.13
2022-09-07T23:19:12.282Z,21.05
2022-09-07T23:23:23.916Z,21.00
2022-09-07T23:27:35.862Z,21.09
2022-09-07T23:31:48.152Z,21.02
2022-09-07T23:36:05.063Z,21.02
2022-09-07T23:40:16.942Z,21.01
2022-09-07T23:44:28.496Z,20.99
2022-09-07T23:48:40.538Z,20.99
2022-09-07T23:52:52.113Z,21.01
2022-09-07T23:57:03.774Z,21.06
